Time;durP1;ratioP1;P1;durP2;ratioP2;P2;SDS_P1;SDS_P2;PMS_P1;PMS_P2;Temp;Humidity;BMP_temperature;BMP_pressure;BME280_temperature;BME280_humidity;BME280_pressure;Samples;Min_cycle;Max_cycle;Signal;HPM_P1;HPM_P2
2021/06/20 00:00:50;;;;;;;;;;;;;;;;;;3524241;28;19928;-41
2021/06/20 00:02:31;;;;;;;;;;;;;;;;;;3523386;28;19933;-41
2021/06/20 00:04:12;;;;;;;;;;;;;;;;;;3524248;28;20015;-41
2021/06/20 00:05:53;;;;;;;;;;;;;;;;;;3525353;28;20330;-41
2021/06/20 00:07:33;;;;;;;;;;;;;;;;;;3522795;28;19928;-41
2021/06/20 00:09:14;;;;;;;;;;;;;;;;;;3525288;28;19931;-41
2021/06/20 00:10:55;;;;;;;;;;;;;;;;;;3522786;28;19931;-41
2021/06/20 00:12:36;;;;;;;;;;;;;;;;;;3526267;28;20077;-41
2021/06/20 00:14:17;;;;;;;;;;;;;;;;;;3520890;28;20010;-41
2021/06/20 00:15:58;;;;;;;;;;;;;;;;;;3525581;28;19941;-41
2021/06/20 00:17:39;;;;;;;;;;;;;;;;;;3523962;28;19928;-41
2021/06/20 00:19:20;;;;;;;;;;;;;;;;;;3522712;28;20030;-41
2021/06/20 00:21:01;;;;;;;;;;;;;;;;;;3525097;28;19934;-41
2021/06/20 00:22:42;;;;;;;;;;;;;;;;;;3523840;28;20030;-41
2021/06/20 00:24:23;;;;;;;;;;;;;;;;;;3524543;28;19967;-41
2021/06/20 00:26:04;;;;;;;;;;;;;;;;;;3524116;28;19934;-41
2021/06/20 00:27:45;;;;;;;;;;;;;;;;;;3524423;28;19988;-41
2021/06/20 00:29:26;;;;;;;;;;;;;;;;;;3524363;28;20026;-41
2021/06/20 00:31:07;;;;;;;;;;;;;;;;;;3523538;28;19935;-41
2021/06/20 00:32:48;;;;;;;;;;;;;;;;;;3525236;28;19927;-41
2021/06/20 00:34:29;;;;;;;;;;;;;;;;;;3523603;28;20408;-41
2021/06/20 00:36:10;;;;;;;;;;;;;;;;;;3524767;28;20388;-41
2021/06/20 00:37:51;;;;;;;;;;;;;;;;;;3523109;28;19928;-41
2021/06/20 00:39:32;;;;;;;;;;;;;;;;;;3523645;28;20017;-41
2021/06/20 00:41:12;;;;;;;;;;;;;;;;;;3523970;28;19927;-41
2021/06/20 00:42:53;;;;;;;;;;;;;;;;;;3523650;28;19931;-41
2021/06/20 00:44:34;;;;;;;;;;;;;;;;;;3524912;28;19967;-41
2021/06/20 00:46:15;;;;;;;;;;;;;;;;;;3523478;28;19931;-41
2021/06/20 00:47:57;;;;;;;;;;;;;;;;;;3524811;28;20324;-41
2021/06/20 00:49:37;;;;;;;;;;;;;;;;;;3523518;28;19934;-41
2021/06/20 00:51:18;;;;;;;;;;;;;;;;;;3524359;28;20018;-41
2021/06/20 00:52:59;;;;;;;;;;;;;;;;;;3523285;28;19932;-41
2021/06/20 00:54:46;;;;;;;;;;;;;;;;;;3522640;28;19928;-41
2021/06/20 00:56:27;;;;;;;;;;;;;;;;;;3524502;28;19989;-41
2021/06/20 00:58:08;;;;;;;;;;;;;;;;;;3523680;28;19927;-41
2021/06/20 00:59:49;;;;;;;;;;;;;;;;;;3524996;28;20091;-41
2021/06/20 01:01:30;;;;;;;;;;;;;;;;;;3522142;28;20410;-41
2021/06/20 01:03:11;;;;;;;;;;;;;;;;;;3523677;28;19932;-41
2021/06/20 01:04:52;;;;;;;;;;;;;;;;;;3523413;28;20014;-41
2021/06/20 01:06:33;;;;;;;;;;;;;;;;;;3523340;28;19970;-41
2021/06/20 01:08:14;;;;;;;;;;;;;;;;;;3524416;28;19928;-41
2021/06/20 01:09:54;;;;;;;;;;;;;;;;;;3522182;28;20449;-41
2021/06/20 01:11:35;;;;;;;;;;;;;;;;;;3524198;28;19928;-41
2021/06/20 01:13:16;;;;;;;;;;;;;;;;;;3519971;28;19939;-41
2021/06/20 01:14:57;;;;;;;;;;;;;;;;;;3524065;28;20034;-41
2021/06/20 01:16:38;;;;;;;;;;;;;;;;;;3522761;28;19928;-41
2021/06/20 01:18:20;;;;;;;;;;;;;;;;;;3523848;28;20373;-41
2021/06/20 01:20:00;;;;;;;;;;;;;;;;;;3524731;28;19927;-41
2021/06/20 01:21:41;;;;;;;;;;;;;;;;;;3522044;28;20409;-41
2021/06/20 01:23:22;;;;;;;;;;;;;;;;;;3524567;28;20397;-41
2021/06/20 01:25:03;;;;;;;;;;;;;;;;;;3521783;28;19928;-41
2021/06/20 01:26:44;;;;;;;;;;;;;;;;;;3524029;28;19928;-41
2021/06/20 01:28:27;;;;;;;;;;;;;;;;;;3522548;28;19956;-41
2021/06/20 01:30:08;;;;;;;;;;;;;;;;;;3522268;28;19963;-41
2021/06/20 01:31:51;;;;;;;;;;;;;;;;;;3524318;28;19927;-40
2021/06/20 01:33:32;;;;;;;;;;;;;;;;;;3522097;28;19935;-41
2021/06/20 01:35:13;;;;;;;;;;;;;;;;;;3524294;28;20487;-41
2021/06/20 01:36:54;;;;;;;;;;;;;;;;;;3521927;28;19928;-41
2021/06/20 01:38:35;;;;;;;;;;;;;;;;;;3523883;28;19935;-41
2021/06/20 01:40:16;;;;;;;;;;;;;;;;;;3523718;28;19979;-41
2021/06/20 01:41:57;;;;;;;;;;;;;;;;;;3523505;28;19932;-41
2021/06/20 01:43:38;;;;;;;;;;;;;;;;;;3524004;28;19973;-41
2021/06/20 01:45:19;;;;;;;;;;;;;;;;;;3523087;28;19946;-40
2021/06/20 01:47:00;;;;;;;;;;;;;;;;;;3524452;28;19928;-41
2021/06/20 01:48:41;;;;;;;;;;;;;;;;;;3521848;28;19934;-41
2021/06/20 01:50:22;;;;;;;;;;;;;;;;;;3523832;28;19928;-41
2021/06/20 01:52:03;;;;;;;;;;;;;;;;;;3524661;28;20010;-41
2021/06/20 01:53:44;;;;;;;;;;;;;;;;;;3523866;28;19935;-41
2021/06/20 01:55:24;;;;;;;;;;;;;;;;;;3523725;28;19980;-41
2021/06/20 01:57:05;;;;;;;;;;;;;;;;;;3521988;28;19967;-41
2021/06/20 01:58:47;;;;;;;;;;;;;;;;;;3524249;28;20022;-41
2021/06/20 02:00:27;;;;;;;;;;;;;;;;;;3521983;28;20031;-41
2021/06/20 02:02:08;;;;;;;;;;;;;;;;;;3523903;28;19928;-42
2021/06/20 02:03:49;;;;;;;;;;;;;;;;;;3521770;28;19928;-41
2021/06/20 02:05:31;;;;;;;;;;;;;;;;;;3523415;28;19997;-41
2021/06/20 02:07:12;;;;;;;;;;;;;;;;;;3523578;28;19953;-41
2021/06/20 02:08:53;;;;;;;;;;;;;;;;;;3521811;28;19928;-40
2021/06/20 02:10:34;;;;;;;;;;;;;;;;;;3524054;28;19934;-41
2021/06/20 02:12:15;;;;;;;;;;;;;;;;;;3521641;28;20331;-41
2021/06/20 02:13:56;;;;;;;;;;;;;;;;;;3522866;28;19932;-41
2021/06/20 02:15:37;;;;;;;;;;;;;;;;;;3521764;28;20014;-41
2021/06/20 02:17:17;;;;;;;;;;;;;;;;;;3524585;28;19934;-41
2021/06/20 02:18:59;;;;;;;;;;;;;;;;;;3522359;28;19981;-41
2021/06/20 02:20:40;;;;;;;;;;;;;;;;;;3521827;28;20016;-41
2021/06/20 02:22:21;;;;;;;;;;;;;;;;;;3523554;28;19967;-41
2021/06/20 02:24:02;;;;;;;;;;;;;;;;;;3524479;28;19954;-41
2021/06/20 02:25:43;;;;;;;;;;;;;;;;;;3526387;28;19928;-41
2021/06/20 02:27:24;;;;;;;;;;;;;;;;;;3523947;28;19927;-41
2021/06/20 02:29:04;;;;;;;;;;;;;;;;;;3525731;28;19928;-41
2021/06/20 02:30:47;;;;;;;;;;;;;;;;;;3523695;28;19928;-41
2021/06/20 02:32:27;;;;;;;;;;;;;;;;;;3524079;28;19928;-42
2021/06/20 02:34:08;;;;;;;;;;;;;;;;;;3526247;28;20411;-41
2021/06/20 02:35:50;;;;;;;;;;;;;;;;;;3523809;28;20352;-41
2021/06/20 02:37:31;;;;;;;;;;;;;;;;;;3526198;28;19962;-42
2021/06/20 02:39:12;;;;;;;;;;;;;;;;;;3525373;28;20018;-41
2021/06/20 02:40:53;;;;;;;;;;;;;;;;;;3525787;28;19934;-41
2021/06/20 02:42:34;;;;;;;;;;;;;;;;;;3524233;28;19928;-41
2021/06/20 02:44:15;;;;;;;;;;;;;;;;;;3525587;28;20396;-41
2021/06/20 02:45:56;;;;;;;;;;;;;;;;;;3526006;28;19986;-41
2021/06/20 02:47:37;;;;;;;;;;;;;;;;;;3523946;28;21559;-41
2021/06/20 02:49:18;;;;;;;;;;;;;;;;;;3526010;28;19928;-40
2021/06/20 02:50:58;;;;;;;;;;;;;;;;;;3523776;28;19928;-41
2021/06/20 02:52:39;;;;;;;;;;;;;;;;;;3525733;28;19931;-41
2021/06/20 02:54:20;;;;;;;;;;;;;;;;;;3526483;28;20583;-41
2021/06/20 02:56:01;;;;;;;;;;;;;;;;;;3525205;28;19939;-41
2021/06/20 02:57:42;;;;;;;;;;;;;;;;;;3525698;28;20033;-41
2021/06/20 02:59:23;;;;;;;;;;;;;;;;;;3523592;28;20459;-41
2021/06/20 03:01:04;;;;;;;;;;;;;;;;;;3525933;28;19950;-41
2021/06/20 03:02:45;;;;;;;;;;;;;;;;;;3523805;28;20444;-41
2021/06/20 03:04:26;;;;;;;;;;;;;;;;;;3526012;28;19932;-41
2021/06/20 03:06:07;;;;;;;;;;;;;;;;;;3523775;28;20388;-41
2021/06/20 03:07:48;;;;;;;;;;;;;;;;;;3525024;28;19938;-41
2021/06/20 03:09:29;;;;;;;;;;;;;;;;;;3524549;28;20068;-41
2021/06/20 03:11:10;;;;;;;;;;;;;;;;;;3524635;28;20307;-41
2021/06/20 03:12:51;;;;;;;;;;;;;;;;;;3525739;28;19927;-41
2021/06/20 03:14:31;;;;;;;;;;;;;;;;;;3521917;28;20026;-41
2021/06/20 03:16:12;;;;;;;;;;;;;;;;;;3525735;28;19928;-41
2021/06/20 03:17:53;;;;;;;;;;;;;;;;;;3524149;28;20023;-41
2021/06/20 03:19:34;;;;;;;;;;;;;;;;;;3525346;28;19974;-41
2021/06/20 03:21:15;;;;;;;;;;;;;;;;;;3525199;28;20270;-41
2021/06/20 03:22:56;;;;;;;;;;;;;;;;;;3523564;28;19931;-41
2021/06/20 03:24:37;;;;;;;;;;;;;;;;;;3525618;28;19928;-41
2021/06/20 03:26:18;;;;;;;;;;;;;;;;;;3523378;28;19934;-42
2021/06/20 03:27:59;;;;;;;;;;;;;;;;;;3526005;28;19928;-41
2021/06/20 03:29:40;;;;;;;;;;;;;;;;;;3523299;28;19927;-41
2021/06/20 03:31:21;;;;;;;;;;;;;;;;;;3525115;28;19931;-41
2021/06/20 03:33:02;;;;;;;;;;;;;;;;;;3523828;28;20019;-41
2021/06/20 03:34:43;;;;;;;;;;;;;;;;;;3523454;28;20353;-41
2021/06/20 03:36:24;;;;;;;;;;;;;;;;;;3524775;28;19928;-41
2021/06/20 03:38:05;;;;;;;;;;;;;;;;;;3523108;28;19972;-41
2021/06/20 03:39:45;;;;;;;;;;;;;;;;;;3525610;28;19927;-41
2021/06/20 03:41:26;;;;;;;;;;;;;;;;;;3524698;28;19974;-41
2021/06/20 03:43:07;;;;;;;;;;;;;;;;;;3525364;28;20354;-41
2021/06/20 03:44:49;;;;;;;;;;;;;;;;;;3524619;28;20422;-41
2021/06/20 03:46:29;;;;;;;;;;;;;;;;;;3524745;28;20030;-41
2021/06/20 03:48:10;;;;;;;;;;;;;;;;;;3525334;28;20009;-41
2021/06/20 03:49:51;;;;;;;;;;;;;;;;;;3525769;28;20023;-41
2021/06/20 03:51:33;;;;;;;;;;;;;;;;;;3525467;28;19927;-41
2021/06/20 03:53:14;;;;;;;;;;;;;;;;;;3523264;28;20049;-41
2021/06/20 03:54:55;;;;;;;;;;;;;;;;;;3525931;28;19963;-41
2021/06/20 03:56:36;;;;;;;;;;;;;;;;;;3522937;28;19982;-41
2021/06/20 03:58:17;;;;;;;;;;;;;;;;;;3524033;28;19928;-41
2021/06/20 03:59:58;;;;;;;;;;;;;;;;;;3524473;28;19975;-41
2021/06/20 04:01:39;;;;;;;;;;;;;;;;;;3522789;28;19928;-41
2021/06/20 04:03:20;;;;;;;;;;;;;;;;;;3525083;28;19935;-41
2021/06/20 04:05:00;;;;;;;;;;;;;;;;;;3522876;28;19928;-42
2021/06/20 04:06:41;;;;;;;;;;;;;;;;;;3525427;28;20014;-41
2021/06/20 04:08:22;;;;;;;;;;;;;;;;;;3524629;28;19932;-41
2021/06/20 04:10:03;;;;;;;;;;;;;;;;;;3524888;28;19927;-41
2021/06/20 04:11:46;;;;;;;;;;;;;;;;;;3523742;28;19967;-44
2021/06/20 04:13:27;;;;;;;;;;;;;;;;;;3521417;28;19939;-45
2021/06/20 04:15:08;;;;;;;;;;;;;;;;;;3524054;28;19939;-44
2021/06/20 04:16:49;;;;;;;;;;;;;;;;;;3522668;28;19928;-45
2021/06/20 04:18:30;;;;;;;;;;;;;;;;;;3525079;28;19934;-44
2021/06/20 04:20:12;;;;;;;;;;;;;;;;;;3522909;28;19934;-44
2021/06/20 04:21:53;;;;;;;;;;;;;;;;;;3524366;28;19973;-44
2021/06/20 04:23:34;;;;;;;;;;;;;;;;;;3524399;28;19932;-44
2021/06/20 04:25:15;;;;;;;;;;;;;;;;;;3522944;28;19958;-44
2021/06/20 04:26:57;;;;;;;;;;;;;;;;;;3524780;28;20296;-45
2021/06/20 04:28:38;;;;;;;;;;;;;;;;;;3522450;28;19967;-44
2021/06/20 04:30:19;;;;;;;;;;;;;;;;;;3524940;28;19928;-44
2021/06/20 04:32:00;;;;;;;;;;;;;;;;;;3522607;28;19928;-44
2021/06/20 04:33:41;;;;;;;;;;;;;;;;;;3524817;28;20025;-44
2021/06/20 04:35:22;;;;;;;;;;;;;;;;;;3522301;28;19947;-41
2021/06/20 04:37:03;;;;;;;;;;;;;;;;;;3522786;28;19932;-41
2021/06/20 04:38:45;;;;;;;;;;;;;;;;;;3523891;28;20014;-41
2021/06/20 04:40:26;;;;;;;;;;;;;;;;;;3522794;28;20369;-41
2021/06/20 04:42:09;;;;;;;;;;;;;;;;;;3524684;28;20019;-41
2021/06/20 04:43:58;;;;;;;;;;;;;;;;;;3523813;28;19967;-41
2021/06/20 04:45:39;;;;;;;;;;;;;;;;;;3524366;28;19963;-41
2021/06/20 04:47:22;;;;;;;;;;;;;;;;;;3522875;28;20316;-41
2021/06/20 04:49:03;;;;;;;;;;;;;;;;;;3523729;28;20401;-41
2021/06/20 04:50:44;;;;;;;;;;;;;;;;;;3524665;28;20380;-41
2021/06/20 04:52:25;;;;;;;;;;;;;;;;;;3522310;28;19928;-42
2021/06/20 04:54:06;;;;;;;;;;;;;;;;;;3524870;28;19931;-41
2021/06/20 04:55:47;;;;;;;;;;;;;;;;;;3522680;28;20450;-41
2021/06/20 04:57:28;;;;;;;;;;;;;;;;;;3525373;28;19928;-42
2021/06/20 04:59:09;;;;;;;;;;;;;;;;;;3522973;28;19927;-41
2021/06/20 05:00:50;;;;;;;;;;;;;;;;;;3522799;28;20277;-41
2021/06/20 05:02:31;;;;;;;;;;;;;;;;;;3524576;28;19928;-42
2021/06/20 05:04:12;;;;;;;;;;;;;;;;;;3522361;28;20308;-41
2021/06/20 05:05:53;;;;;;;;;;;;;;;;;;3524587;28;19963;-42
2021/06/20 05:07:34;;;;;;;;;;;;;;;;;;3522401;28;19928;-41
2021/06/20 05:09:18;;;;;;;;;;;;;;;;;;3524240;28;19927;-41
2021/06/20 05:10:59;;;;;;;;;;;;;;;;;;3523967;28;20018;-41
2021/06/20 05:12:40;;;;;;;;;;;;;;;;;;3522265;28;19950;-41
2021/06/20 05:14:21;;;;;;;;;;;;;;;;;;3523230;28;20387;-41
2021/06/20 05:16:02;;;;;;;;;;;;;;;;;;3523828;28;19927;-41
2021/06/20 05:17:43;;;;;;;;;;;;;;;;;;3524444;28;19996;-41
2021/06/20 05:19:24;;;;;;;;;;;;;;;;;;3523284;28;19966;-41
2021/06/20 05:21:05;;;;;;;;;;;;;;;;;;3524007;28;19935;-41
2021/06/20 05:22:46;;;;;;;;;;;;;;;;;;3523735;28;19978;-41
2021/06/20 05:24:27;;;;;;;;;;;;;;;;;;3522374;28;20426;-42
2021/06/20 05:26:08;;;;;;;;;;;;;;;;;;3524218;28;20014;-41
2021/06/20 05:27:49;;;;;;;;;;;;;;;;;;3522409;28;19928;-41
2021/06/20 05:29:30;;;;;;;;;;;;;;;;;;3524673;28;20396;-41
2021/06/20 05:31:11;;;;;;;;;;;;;;;;;;3521952;28;19928;-41
2021/06/20 05:32:53;;;;;;;;;;;;;;;;;;3524781;28;19931;-44
2021/06/20 05:34:34;;;;;;;;;;;;;;;;;;3522546;28;19975;-45
2021/06/20 05:36:15;;;;;;;;;;;;;;;;;;3523602;28;20010;-45
2021/06/20 05:37:56;;;;;;;;;;;;;;;;;;3523965;28;19934;-45
2021/06/20 05:39:37;;;;;;;;;;;;;;;;;;3522500;28;19932;-44
2021/06/20 05:41:18;;;;;;;;;;;;;;;;;;3524116;28;20068;-44
2021/06/20 05:42:59;;;;;;;;;;;;;;;;;;3522226;28;19931;-44
2021/06/20 05:44:40;;;;;;;;;;;;;;;;;;3524278;28;19927;-44
2021/06/20 05:46:22;;;;;;;;;;;;;;;;;;3523112;28;19928;-45
2021/06/20 05:48:03;;;;;;;;;;;;;;;;;;3524317;28;19927;-44
2021/06/20 05:49:44;;;;;;;;;;;;;;;;;;3523347;28;19953;-45
2021/06/20 05:51:25;;;;;;;;;;;;;;;;;;3523392;28;20061;-45
2021/06/20 05:53:06;;;;;;;;;;;;;;;;;;3524194;28;20407;-44
2021/06/20 05:54:50;;;;;;;;;;;;;;;;;;3522124;28;20389;-44
2021/06/20 05:56:31;;;;;;;;;;;;;;;;;;3524393;28;19970;-45
2021/06/20 05:58:12;;;;;;;;;;;;;;;;;;3521874;28;20022;-44
2021/06/20 05:59:53;;;;;;;;;;;;;;;;;;3525724;28;19927;-44
2021/06/20 06:01:33;;;;;;;;;;;;;;;;;;3525400;28;20072;-44
2021/06/20 06:03:14;;;;;;;;;;;;;;;;;;3525291;28;20069;-44
2021/06/20 06:04:55;;;;;;;;;;;;;;;;;;3526698;28;19934;-44
2021/06/20 06:06:36;;;;;;;;;;;;;;;;;;3523826;28;19927;-44
2021/06/20 06:08:17;;;;;;;;;;;;;;;;;;3526592;28;20014;-44
2021/06/20 06:09:59;;;;;;;;;;;;;;;;;;3524505;28;19928;-43
2021/06/20 06:11:40;;;;;;;;;;;;;;;;;;3525748;28;19928;-44
2021/06/20 06:13:21;;;;;;;;;;;;;;;;;;3523149;28;19970;-44
2021/06/20 06:15:02;;;;;;;;;;;;;;;;;;3524486;28;19927;-42
2021/06/20 06:16:43;;;;;;;;;;;;;;;;;;3526845;28;19967;-42
2021/06/20 06:18:24;;;;;;;;;;;;;;;;;;3523968;28;20402;-41
2021/06/20 06:20:05;;;;;;;;;;;;;;;;;;3526762;28;20072;-43
2021/06/20 06:21:46;;;;;;;;;;;;;;;;;;3527001;28;19975;-45
2021/06/20 06:23:27;;;;;;;;;;;;;;;;;;3526305;28;19932;-45
2021/06/20 06:25:08;;;;;;;;;;;;;;;;;;3524248;28;19927;-46
2021/06/20 06:26:49;;;;;;;;;;;;;;;;;;3524324;28;19927;-44
2021/06/20 06:28:29;;;;;;;;;;;;;;;;;;3526288;28;20278;-45
2021/06/20 06:30:10;;;;;;;;;;;;;;;;;;3524124;28;20396;-46
2021/06/20 06:31:51;;;;;;;;;;;;;;;;;;3526333;28;19953;-45
2021/06/20 06:33:32;;;;;;;;;;;;;;;;;;3525003;28;20073;-45
2021/06/20 06:35:13;;;;;;;;;;;;;;;;;;3525403;28;19928;-46
2021/06/20 06:36:55;;;;;;;;;;;;;;;;;;3525728;28;20403;-45
2021/06/20 06:38:36;;;;;;;;;;;;;;;;;;3525241;28;20011;-46
2021/06/20 06:40:17;;;;;;;;;;;;;;;;;;3526166;28;19927;-46
2021/06/20 06:41:58;;;;;;;;;;;;;;;;;;3523931;28;19935;-45
2021/06/20 06:43:39;;;;;;;;;;;;;;;;;;3526071;28;20057;-45
2021/06/20 06:45:20;;;;;;;;;;;;;;;;;;3526210;28;20331;-47
2021/06/20 06:47:01;;;;;;;;;;;;;;;;;;3525386;28;19950;-46
2021/06/20 06:48:42;;;;;;;;;;;;;;;;;;3525633;28;20027;-47
2021/06/20 06:50:23;;;;;;;;;;;;;;;;;;3523896;28;20039;-46
2021/06/20 06:52:04;;;;;;;;;;;;;;;;;;3525799;28;19927;-45
2021/06/20 06:53:45;;;;;;;;;;;;;;;;;;3523825;28;19927;-46
2021/06/20 06:55:26;;;;;;;;;;;;;;;;;;3526044;28;20467;-46
2021/06/20 06:57:07;;;;;;;;;;;;;;;;;;3524610;28;19931;-46
2021/06/20 06:58:48;;;;;;;;;;;;;;;;;;3525520;28;19966;-45
2021/06/20 07:00:29;;;;;;;;;;;;;;;;;;3524256;28;20380;-45
2021/06/20 07:02:10;;;;;;;;;;;;;;;;;;3523576;28;19967;-45
2021/06/20 07:03:51;;;;;;;;;;;;;;;;;;3525966;28;20384;-45
2021/06/20 07:05:32;;;;;;;;;;;;;;;;;;3523424;28;19934;-43
2021/06/20 07:07:13;;;;;;;;;;;;;;;;;;3526238;28;20029;-43
2021/06/20 07:08:54;;;;;;;;;;;;;;;;;;3523786;28;19932;-45
2021/06/20 07:10:35;;;;;;;;;;;;;;;;;;3524334;28;20030;-44
2021/06/20 07:12:16;;;;;;;;;;;;;;;;;;3524016;28;19928;-45
2021/06/20 07:13:57;;;;;;;;;;;;;;;;;;3522325;28;20014;-46
2021/06/20 07:15:38;;;;;;;;;;;;;;;;;;3525561;28;19928;-45
2021/06/20 07:17:19;;;;;;;;;;;;;;;;;;3523330;28;19935;-45
2021/06/20 07:18:59;;;;;;;;;;;;;;;;;;3526004;28;20399;-46
2021/06/20 07:20:40;;;;;;;;;;;;;;;;;;3523672;28;19927;-46
2021/06/20 07:22:21;;;;;;;;;;;;;;;;;;3525830;28;20026;-46
2021/06/20 07:24:03;;;;;;;;;;;;;;;;;;3522433;28;20018;-45
2021/06/20 07:25:44;;;;;;;;;;;;;;;;;;3524360;28;19990;-46
2021/06/20 07:27:26;;;;;;;;;;;;;;;;;;3525083;28;19970;-45
2021/06/20 07:29:07;;;;;;;;;;;;;;;;;;3523829;28;19970;-44
2021/06/20 07:30:49;;;;;;;;;;;;;;;;;;3525581;28;20026;-44
2021/06/20 07:32:29;;;;;;;;;;;;;;;;;;3524709;28;19928;-46
2021/06/20 07:34:10;;;;;;;;;;;;;;;;;;3525926;28;19996;-46
2021/06/20 07:35:52;;;;;;;;;;;;;;;;;;3523904;28;19934;-43
2021/06/20 07:37:33;;;;;;;;;;;;;;;;;;3524384;28;19963;-44
2021/06/20 07:39:15;;;;;;;;;;;;;;;;;;3524586;28;19928;-43
2021/06/20 07:40:56;;;;;;;;;;;;;;;;;;3523289;28;20410;-45
2021/06/20 07:42:41;;;;;;;;;;;;;;;;;;3525613;28;19928;-42
2021/06/20 07:44:22;;;;;;;;;;;;;;;;;;3524507;28;19927;-45
2021/06/20 07:46:02;;;;;;;;;;;;;;;;;;3525496;28;19931;-46
2021/06/20 07:47:43;;;;;;;;;;;;;;;;;;3524014;28;20022;-46
2021/06/20 07:49:24;;;;;;;;;;;;;;;;;;3525730;28;19931;-46
2021/06/20 07:51:05;;;;;;;;;;;;;;;;;;3524277;28;19931;-46
2021/06/20 07:52:46;;;;;;;;;;;;;;;;;;3523115;28;19928;-46
2021/06/20 07:54:27;;;;;;;;;;;;;;;;;;3525652;28;20468;-44
2021/06/20 07:56:09;;;;;;;;;;;;;;;;;;3522926;28;19927;-45
2021/06/20 07:57:50;;;;;;;;;;;;;;;;;;3525369;28;19955;-43
2021/06/20 07:59:31;;;;;;;;;;;;;;;;;;3522716;28;19935;-43
2021/06/20 08:01:12;;;;;;;;;;;;;;;;;;3524521;28;19979;-44
2021/06/20 08:02:53;;;;;;;;;;;;;;;;;;3523697;28;19928;-43
2021/06/20 08:04:34;;;;;;;;;;;;;;;;;;3524544;28;20421;-43
2021/06/20 08:06:15;;;;;;;;;;;;;;;;;;3525065;28;19973;-45
2021/06/20 08:07:55;;;;;;;;;;;;;;;;;;3523105;28;20022;-45
2021/06/20 08:09:36;;;;;;;;;;;;;;;;;;3525435;28;20300;-45
2021/06/20 08:11:17;;;;;;;;;;;;;;;;;;3524117;28;19931;-41
2021/06/20 08:12:58;;;;;;;;;;;;;;;;;;3523763;28;20384;-43
2021/06/20 08:14:41;;;;;;;;;;;;;;;;;;3523489;28;20035;-43
2021/06/20 08:16:21;;;;;;;;;;;;;;;;;;3524273;28;20296;-45
2021/06/20 08:18:02;;;;;;;;;;;;;;;;;;3524905;28;20413;-45
2021/06/20 08:19:44;;;;;;;;;;;;;;;;;;3523012;28;19977;-44
2021/06/20 08:21:24;;;;;;;;;;;;;;;;;;3524806;28;19980;-44
2021/06/20 08:23:05;;;;;;;;;;;;;;;;;;3524012;28;19934;-44
2021/06/20 08:24:46;;;;;;;;;;;;;;;;;;3525719;28;19934;-43
2021/06/20 08:26:27;;;;;;;;;;;;;;;;;;3523501;28;20574;-43
2021/06/20 08:28:08;;;;;;;;;;;;;;;;;;3523251;28;20042;-44
2021/06/20 08:29:52;;;;;;;;;;;;;;;;;;3525154;28;19928;-44
2021/06/20 08:31:33;;;;;;;;;;;;;;;;;;3525162;28;19927;-44
2021/06/20 08:33:14;;;;;;;;;;;;;;;;;;3525427;28;20061;-44
2021/06/20 08:34:55;;;;;;;;;;;;;;;;;;3524027;28;20392;-44
2021/06/20 08:36:36;;;;;;;;;;;;;;;;;;3524396;28;19981;-44
2021/06/20 08:38:17;;;;;;;;;;;;;;;;;;3522823;28;19931;-45
2021/06/20 08:39:58;;;;;;;;;;;;;;;;;;3525256;28;20493;-44
2021/06/20 08:41:39;;;;;;;;;;;;;;;;;;3523621;28;19952;-43
2021/06/20 08:43:20;;;;;;;;;;;;;;;;;;3522772;28;19934;-45
2021/06/20 08:45:01;;;;;;;;;;;;;;;;;;3525049;28;19934;-46
2021/06/20 08:46:42;;;;;;;;;;;;;;;;;;3522579;28;19974;-46
2021/06/20 08:48:23;;;;;;;;;;;;;;;;;;3524960;28;20377;-45
2021/06/20 08:50:04;;;;;;;;;;;;;;;;;;3522654;28;20476;-45
2021/06/20 08:51:45;;;;;;;;;;;;;;;;;;3523880;28;19974;-46
2021/06/20 08:53:26;;;;;;;;;;;;;;;;;;3524601;28;19928;-46
2021/06/20 08:55:08;;;;;;;;;;;;;;;;;;3523513;28;19938;-44
2021/06/20 08:56:50;;;;;;;;;;;;;;;;;;3524934;28;19978;-45
2021/06/20 08:58:33;;;;;;;;;;;;;;;;;;3522348;28;20458;-45
2021/06/20 09:00:14;;;;;;;;;;;;;;;;;;3523984;28;20381;-47
2021/06/20 09:01:56;;;;;;;;;;;;;;;;;;3522988;28;19988;-45
2021/06/20 09:03:37;;;;;;;;;;;;;;;;;;3525195;28;20367;-45
2021/06/20 09:05:18;;;;;;;;;;;;;;;;;;3524388;28;20008;-45
2021/06/20 09:06:59;;;;;;;;;;;;;;;;;;3523606;28;19932;-47
2021/06/20 09:08:40;;;;;;;;;;;;;;;;;;3524724;28;19939;-45
2021/06/20 09:10:21;;;;;;;;;;;;;;;;;;3524086;28;20429;-46
2021/06/20 09:12:02;;;;;;;;;;;;;;;;;;3524346;28;20426;-46
2021/06/20 09:13:43;;;;;;;;;;;;;;;;;;3520606;28;20336;-44
2021/06/20 09:15:24;;;;;;;;;;;;;;;;;;3523985;28;20233;-45
2021/06/20 09:17:05;;;;;;;;;;;;;;;;;;3523714;28;20026;-45
2021/06/20 09:18:46;;;;;;;;;;;;;;;;;;3522320;28;20396;-44
2021/06/20 09:20:27;;;;;;;;;;;;;;;;;;3524542;28;19938;-45
2021/06/20 09:22:12;;;;;;;;;;;;;;;;;;3522211;28;19969;-46
2021/06/20 09:23:53;;;;;;;;;;;;;;;;;;3524204;28;19927;-44
2021/06/20 09:25:34;;;;;;;;;;;;;;;;;;3522456;28;19928;-44
2021/06/20 09:27:15;;;;;;;;;;;;;;;;;;3522109;28;19965;-45
2021/06/20 09:28:55;;;;;;;;;;;;;;;;;;3524341;28;19936;-44
2021/06/20 09:30:39;;;;;;;;;;;;;;;;;;3522271;28;20034;-43
2021/06/20 09:32:20;;;;;;;;;;;;;;;;;;3524388;28;20014;-44
2021/06/20 09:34:01;;;;;;;;;;;;;;;;;;3523396;28;19928;-45
2021/06/20 09:35:42;;;;;;;;;;;;;;;;;;3526522;28;19928;-44
2021/06/20 09:37:23;;;;;;;;;;;;;;;;;;3525081;28;20022;-45
2021/06/20 09:39:03;;;;;;;;;;;;;;;;;;3524846;28;20012;-46
2021/06/20 09:40:45;;;;;;;;;;;;;;;;;;3526702;28;19928;-46
2021/06/20 09:42:26;;;;;;;;;;;;;;;;;;3524481;28;19931;-44
2021/06/20 09:44:06;;;;;;;;;;;;;;;;;;3526856;28;19928;-42
2021/06/20 09:45:47;;;;;;;;;;;;;;;;;;3524766;28;19938;-45
2021/06/20 09:47:28;;;;;;;;;;;;;;;;;;3527018;28;19950;-44
2021/06/20 09:49:09;;;;;;;;;;;;;;;;;;3523812;28;19927;-46
2021/06/20 09:50:50;;;;;;;;;;;;;;;;;;3524953;28;20189;-46
2021/06/20 09:52:32;;;;;;;;;;;;;;;;;;3526130;28;19934;-46
2021/06/20 09:54:12;;;;;;;;;;;;;;;;;;3526894;28;19971;-45
2021/06/20 09:55:53;;;;;;;;;;;;;;;;;;3526594;28;19928;-43
2021/06/20 09:57:34;;;;;;;;;;;;;;;;;;3524479;28;19927;-44
2021/06/20 09:59:15;;;;;;;;;;;;;;;;;;3526589;28;20315;-44
2021/06/20 10:00:56;;;;;;;;;;;;;;;;;;3524582;28;20018;-45
2021/06/20 10:02:39;;;;;;;;;;;;;;;;;;3525730;28;20000;-44
2021/06/20 10:04:20;;;;;;;;;;;;;;;;;;3525552;28;19928;-43
2021/06/20 10:06:01;;;;;;;;;;;;;;;;;;3525714;28;19932;-44
2021/06/20 10:07:42;;;;;;;;;;;;;;;;;;3526463;28;20031;-44
2021/06/20 10:09:23;;;;;;;;;;;;;;;;;;3524170;28;20312;-44
2021/06/20 10:11:04;;;;;;;;;;;;;;;;;;3526767;28;19949;-44
2021/06/20 10:12:44;;;;;;;;;;;;;;;;;;3524098;28;19927;-44
2021/06/20 10:14:25;;;;;;;;;;;;;;;;;;3524456;28;19959;-44
2021/06/20 10:16:06;;;;;;;;;;;;;;;;;;3524765;28;19939;-45
2021/06/20 10:17:47;;;;;;;;;;;;;;;;;;3525633;28;19932;-44
2021/06/20 10:19:29;;;;;;;;;;;;;;;;;;3526263;28;19932;-44
2021/06/20 10:21:10;;;;;;;;;;;;;;;;;;3524694;28;19954;-44
2021/06/20 10:22:52;;;;;;;;;;;;;;;;;;3526608;28;20398;-43
2021/06/20 10:24:33;;;;;;;;;;;;;;;;;;3525148;28;20397;-45
2021/06/20 10:26:14;;;;;;;;;;;;;;;;;;3527224;28;19927;-45
2021/06/20 10:27:54;;;;;;;;;;;;;;;;;;3524822;28;19978;-44
2021/06/20 10:29:35;;;;;;;;;;;;;;;;;;3525240;28;20381;-46
2021/06/20 10:31:16;;;;;;;;;;;;;;;;;;3525917;28;19928;-44
2021/06/20 10:32:57;;;;;;;;;;;;;;;;;;3523951;28;19976;-44
2021/06/20 10:34:38;;;;;;;;;;;;;;;;;;3526495;28;20312;-43
2021/06/20 10:36:19;;;;;;;;;;;;;;;;;;3524571;28;20381;-44
2021/06/20 10:38:00;;;;;;;;;;;;;;;;;;3526051;28;19928;-43
2021/06/20 10:39:41;;;;;;;;;;;;;;;;;;3524427;28;20034;-44
2021/06/20 10:41:22;;;;;;;;;;;;;;;;;;3524021;28;20371;-44
2021/06/20 10:43:03;;;;;;;;;;;;;;;;;;3526235;28;19931;-43
2021/06/20 10:44:44;;;;;;;;;;;;;;;;;;3523599;28;19927;-43
2021/06/20 10:46:25;;;;;;;;;;;;;;;;;;3526166;28;20040;-44
2021/06/20 10:48:06;;;;;;;;;;;;;;;;;;3524693;28;20019;-43
2021/06/20 10:49:47;;;;;;;;;;;;;;;;;;3525665;28;19928;-44
2021/06/20 10:51:28;;;;;;;;;;;;;;;;;;3525110;28;19932;-44
2021/06/20 10:53:09;;;;;;;;;;;;;;;;;;3525785;28;20018;-43
2021/06/20 10:54:52;;;;;;;;;;;;;;;;;;3525641;28;19928;-43
2021/06/20 10:56:34;;;;;;;;;;;;;;;;;;3524869;28;19928;-42
2021/06/20 10:58:14;;;;;;;;;;;;;;;;;;3511963;28;20036;-43
2021/06/20 10:59:56;;;;;;;;;;;;;;;;;;3521258;28;19927;-45
2021/06/20 11:01:37;;;;;;;;;;;;;;;;;;3525903;28;20072;-44
2021/06/20 11:03:21;;;;;;;;;;;;;;;;;;3523504;28;19935;-44
2021/06/20 11:05:03;;;;;;;;;;;;;;;;;;3525045;28;20388;-43
2021/06/20 11:06:44;;;;;;;;;;;;;;;;;;3524584;28;19967;-45
2021/06/20 11:08:25;;;;;;;;;;;;;;;;;;3524052;28;20365;-43
2021/06/20 11:10:06;;;;;;;;;;;;;;;;;;3526116;28;19943;-44
2021/06/20 11:11:47;;;;;;;;;;;;;;;;;;3523801;28;20088;-44
2021/06/20 11:13:27;;;;;;;;;;;;;;;;;;3523771;28;19938;-45
2021/06/20 11:15:10;;;;;;;;;;;;;;;;;;3524192;28;19935;-45
2021/06/20 11:16:51;;;;;;;;;;;;;;;;;;3524217;28;19928;-44
2021/06/20 11:18:32;;;;;;;;;;;;;;;;;;3525828;28;20060;-44
2021/06/20 11:20:13;;;;;;;;;;;;;;;;;;3524782;28;19932;-45
2021/06/20 11:21:55;;;;;;;;;;;;;;;;;;3525851;28;20023;-44
2021/06/20 11:23:39;;;;;;;;;;;;;;;;;;3524704;28;20007;-46
2021/06/20 11:25:20;;;;;;;;;;;;;;;;;;3525299;28;20076;-46
2021/06/20 11:27:02;;;;;;;;;;;;;;;;;;3523863;28;20350;-47
2021/06/20 11:28:43;;;;;;;;;;;;;;;;;;3523567;28;19927;-46
2021/06/20 11:30:23;;;;;;;;;;;;;;;;;;3525744;28;20018;-45